Time,TemperatureF,DewpointF,PressureIn,WindDirection,WindDirectionDegrees,WindSpeedMPH,WindSpeedGustMPH,Humidity,HourlyPrecipIn,Conditions,Clouds,dailyrainin,SoftwareType,DateUTC
2013-02-14 00:14:00,40.8,30.0,30.04,SW,234,3.0,5.0,65,0.00,,,0.00,weatherlink.com 1.10,2013-02-14 06:14:00,
2013-02-14 00:29:00,40.3,29.0,30.04,WSW,253,2.0,5.0,65,0.00,,,0.00,weatherlink.com 1.10,2013-02-14 06:29:00,
2013-02-14 00:44:00,39.9,29.0,30.04,WSW,245,0.0,4.0,65,0.00,,,0.00,weatherlink.com 1.10,2013-02-14 06:44:00,
2013-02-14 00:59:00,39.9,29.0,30.04,SW,236,2.0,4.0,64,0.00,,,0.00,weatherlink.com 1.10,2013-02-14 06:59:00,
2013-02-14 01:14:00,40.3,28.0,30.04,SW,234,4.0,6.0,63,0.00,,,0.00,weatherlink.com 1.10,2013-02-14 07:14:00,
2013-02-14 01:29:00,39.9,29.0,30.04,SW,228,4.0,7.0,64,0.00,,,0.00,weatherlink.com 1.10,2013-02-14 07:29:00,
2013-02-14 01:44:00,39.6,29.0,30.04,SW,233,3.0,5.0,65,0.00,,,0.00,weatherlink.com 1.10,2013-02-14 07:44:00,
2013-02-14 01:59:00,39.7,29.0,30.04,WSW,249,2.0,4.0,65,0.00,,,0.00,weatherlink.com 1.10,2013-02-14 07:59:00,
2013-02-14 02:14:00,39.7,29.0,30.04,SW,225,2.0,5.0,65,0.00,,,0.00,weatherlink.com 1.10,2013-02-14 08:14:00,
2013-02-14 02:29:00,39.4,28.0,30.04,SW,232,1.0,4.0,65,0.00,,,0.00,weatherlink.com 1.10,2013-02-14 08:29:00,
2013-02-14 02:44:00,39.2,28.0,30.04,SW,219,2.0,5.0,64,0.00,,,0.00,weatherlink.com 1.10,2013-02-14 08:44:00,
2013-02-14 02:59:00,39.4,27.0,30.03,SW,227,3.0,4.0,62,0.00,,,0.00,weatherlink.com 1.10,2013-02-14 08:59:00,
2013-02-14 03:14:00,38.8,27.0,30.03,SSW,205,4.0,6.0,63,0.00,,,0.00,weatherlink.com 1.10,2013-02-14 09:14:00,
2013-02-14 03:29:00,38.8,27.0,30.03,SW,220,2.0,4.0,62,0.00,,,0.00,weatherlink.com 1.10,2013-02-14 09:29:00,
2013-02-14 03:44:00,39.0,26.0,30.03,SW,225,3.0,4.0,61,0.00,,,0.00,weatherlink.com 1.10,2013-02-14 09:44:00,
2013-02-14 03:59:00,39.1,27.0,30.03,SW,233,3.0,6.0,61,0.00,,,0.00,weatherlink.com 1.10,2013-02-14 09:59:00,
2013-02-14 04:14:00,38.8,26.0,30.03,SW,227,1.0,4.0,61,0.00,,,0.00,weatherlink.com 1.10,2013-02-14 10:14:00,
2013-02-14 04:29:00,38.5,26.0,30.03,SW,218,1.0,4.0,61,0.00,,,0.00,weatherlink.com 1.10,2013-02-14 10:29:00,
2013-02-14 04:44:00,38.1,26.0,30.03,SW,218,0.0,1.0,62,0.00,,,0.00,weatherlink.com 1.10,2013-02-14 10:44:00,
2013-02-14 04:59:00,36.8,26.0,30.04,SW,218,0.0,0.0,65,0.00,,,0.00,weatherlink.com 1.10,2013-02-14 10:59:00,
2013-02-14 05:14:00,35.9,26.0,30.04,SSW,211,2.0,5.0,67,0.00,,,0.00,weatherlink.com 1.10,2013-02-14 11:14:00,
2013-02-14 05:29:00,37.1,26.0,30.04,SW,232,4.0,8.0,65,0.00,,,0.00,weatherlink.com 1.10,2013-02-14 11:29:00,
2013-02-14 05:44:00,37.0,26.0,30.04,SW,228,2.0,6.0,65,0.00,,,0.00,weatherlink.com 1.10,2013-02-14 11:44:00,
2013-02-14 05:59:00,36.5,26.0,30.04,South,185,3.0,5.0,67,0.00,,,0.00,weatherlink.com 1.10,2013-02-14 11:59:00,
2013-02-14 06:15:00,36.3,26.0,30.05,South,185,0.0,3.0,67,0.00,,,0.00,weatherlink.com 1.10,2013-02-14 12:15:00,
2013-02-14 06:30:00,36.8,26.0,30.05,WSW,238,3.0,5.0,66,0.00,,,0.00,weatherlink.com 1.10,2013-02-14 12:30:00,
2013-02-14 06:45:00,36.7,26.0,30.06,West,259,0.0,4.0,66,0.00,,,0.00,weatherlink.com 1.10,2013-02-14 12:45:00,
2013-02-14 07:00:00,34.8,26.0,30.07,West,259,0.0,1.0,70,0.00,,,0.00,weatherlink.com 1.10,2013-02-14 13:00:00,
2013-02-14 07:15:00,33.0,26.0,30.07,West,259,0.0,0.0,74,0.00,,,0.00,weatherlink.com 1.10,2013-02-14 13:15:00,
2013-02-14 07:30:00,31.9,25.0,30.07,West,259,0.0,0.0,77,0.00,,,0.00,weatherlink.com 1.10,2013-02-14 13:30:00,
2013-02-14 07:45:00,31.8,26.0,30.08,WSW,255,2.0,4.0,80,0.00,,,0.00,weatherlink.com 1.10,2013-02-14 13:45:00,
2013-02-14 08:00:00,34.7,28.0,30.08,WSW,248,1.0,4.0,76,0.00,,,0.00,weatherlink.com 1.10,2013-02-14 14:00:00,
2013-02-14 08:15:00,37.1,29.0,30.10,West,269,3.0,4.0,72,0.00,,,0.00,weatherlink.com 1.10,2013-02-14 14:15:00,
2013-02-14 08:30:00,39.8,29.0,30.11,WSW,254,6.0,8.0,66,0.00,,,0.00,weatherlink.com 1.10,2013-02-14 14:30:00,
2013-02-14 08:45:00,40.9,29.0,30.11,WSW,238,7.0,10.0,63,0.00,,,0.00,weatherlink.com 1.10,2013-02-14 14:45:00,
2013-02-14 09:00:00,42.2,30.0,30.11,WNW,291,8.0,8.0,63,0.00,,,0.00,weatherlink.com 1.10,2013-02-14 15:00:00,
2013-02-14 09:15:00,44.2,30.0,30.12,NW,304,4.0,10.0,59,0.00,,,0.00,weatherlink.com 1.10,2013-02-14 15:15:00,
2013-02-14 09:30:00,45.2,31.0,30.11,NW,313,5.0,10.0,57,0.00,,,0.00,weatherlink.com 1.10,2013-02-14 15:30:00,
2013-02-14 09:45:00,45.9,31.0,30.12,North,5,6.0,11.0,57,0.00,,,0.00,weatherlink.com 1.10,2013-02-14 15:45:00,
2013-02-14 10:00:00,46.4,32.0,30.12,NNW,345,7.0,11.0,57,0.00,,,0.00,weatherlink.com 1.10,2013-02-14 16:00:00,
2013-02-14 10:15:00,47.3,32.0,30.12,North,360,8.0,13.0,55,0.00,,,0.00,weatherlink.com 1.10,2013-02-14 16:15:00,
2013-02-14 10:30:00,47.9,32.0,30.12,NE,52,4.0,9.0,55,0.00,,,0.00,weatherlink.com 1.10,2013-02-14 16:30:00,
2013-02-14 10:45:00,48.2,33.0,30.12,North,355,4.0,8.0,55,0.00,,,0.00,weatherlink.com 1.10,2013-02-14 16:45:00,
2013-02-14 11:00:00,49.1,33.0,30.13,North,5,6.0,9.0,55,0.00,,,0.00,weatherlink.com 1.10,2013-02-14 17:00:00,
2013-02-14 11:15:00,50.1,33.0,30.13,North,355,5.0,7.0,53,0.00,,,0.00,weatherlink.com 1.10,2013-02-14 17:15:00,
2013-02-14 11:30:00,51.2,34.0,30.12,ENE,61,2.0,9.0,52,0.00,,,0.00,weatherlink.com 1.10,2013-02-14 17:30:00,
2013-02-14 11:45:00,51.5,34.0,30.12,North,5,3.0,7.0,51,0.00,,,0.00,weatherlink.com 1.10,2013-02-14 17:45:00,
2013-02-14 12:00:00,52.4,35.0,30.12,North,11,3.0,7.0,51,0.00,,,0.00,weatherlink.com 1.10,2013-02-14 18:00:00,
2013-02-14 12:15:00,52.8,35.0,30.11,SSE,147,0.0,6.0,51,0.00,,,0.00,weatherlink.com 1.10,2013-02-14 18:15:00,
2013-02-14 12:30:00,53.5,35.0,30.11,ESE,103,0.0,5.0,49,0.00,,,0.00,weatherlink.com 1.10,2013-02-14 18:30:00,
2013-02-14 12:45:00,54.1,35.0,30.11,NNE,13,2.0,7.0,48,0.00,,,0.00,weatherlink.com 1.10,2013-02-14 18:45:00,
2013-02-14 13:00:00,54.8,35.0,30.11,NW,321,2.0,4.0,48,0.00,,,0.00,weatherlink.com 1.10,2013-02-14 19:00:00,
2013-02-14 13:15:00,54.9,35.0,30.10,North,355,4.0,7.0,48,0.00,,,0.00,weatherlink.com 1.10,2013-02-14 19:15:00,
2013-02-14 13:30:00,55.7,35.0,30.09,North,9,3.0,7.0,46,0.00,,,0.00,weatherlink.com 1.10,2013-02-14 19:30:00,
2013-02-14 13:45:00,56.0,36.0,30.09,NNW,340,2.0,5.0,47,0.00,,,0.00,weatherlink.com 1.10,2013-02-14 19:45:00,
2013-02-14 14:00:00,56.0,36.0,30.09,NNW,344,3.0,8.0,47,0.00,,,0.00,weatherlink.com 1.10,2013-02-14 20:00:00,
2013-02-14 14:14:00,56.9,36.0,30.09,WNW,286,4.0,7.0,45,0.00,,,0.00,weatherlink.com 1.10,2013-02-14 20:14:00,
2013-02-14 14:29:00,57.4,37.0,30.08,North,360,4.0,6.0,46,0.00,,,0.00,weatherlink.com 1.10,2013-02-14 20:29:00,
2013-02-14 14:45:00,57.8,36.0,30.09,NNE,33,1.0,9.0,45,0.00,,,0.00,weatherlink.com 1.10,2013-02-14 20:45:00,
2013-02-14 15:00:00,57.5,36.0,30.08,NNW,327,5.0,9.0,45,0.00,,,0.00,weatherlink.com 1.10,2013-02-14 21:00:00,
2013-02-14 15:15:00,58.1,36.0,30.08,NNW,340,7.0,10.0,44,0.00,,,0.00,weatherlink.com 1.10,2013-02-14 21:15:00,
2013-02-14 15:30:00,58.3,36.0,30.08,NE,38,3.0,11.0,44,0.00,,,0.00,weatherlink.com 1.10,2013-02-14 21:30:00,
2013-02-14 15:45:00,58.0,35.0,30.08,NE,53,7.0,12.0,43,0.00,,,0.00,weatherlink.com 1.10,2013-02-14 21:45:00,
2013-02-14 16:00:00,58.4,36.0,30.08,NNW,340,3.0,11.0,43,0.00,,,0.00,weatherlink.com 1.10,2013-02-14 22:00:00,
2013-02-14 16:15:00,57.9,35.0,30.09,NNE,28,8.0,14.0,42,0.00,,,0.00,weatherlink.com 1.10,2013-02-14 22:15:00,
2013-02-14 16:30:00,57.8,35.0,30.09,North,355,6.0,12.0,43,0.00,,,0.00,weatherlink.com 1.10,2013-02-14 22:30:00,
2013-02-14 16:45:00,56.8,34.0,30.10,North,5,4.0,14.0,43,0.00,,,0.00,weatherlink.com 1.10,2013-02-14 22:45:00,
2013-02-14 17:00:00,56.4,35.0,30.11,NNE,26,7.0,12.0,44,0.00,,,0.00,weatherlink.com 1.10,2013-02-14 23:00:00,
2013-02-14 17:15:00,55.6,34.0,30.11,North,360,8.0,13.0,44,0.00,,,0.00,weatherlink.com 1.10,2013-02-14 23:15:00,
2013-02-14 17:30:00,55.1,33.0,30.12,North,355,2.0,10.0,44,0.00,,,0.00,weatherlink.com 1.10,2013-02-14 23:30:00,
2013-02-14 17:45:00,54.5,33.0,30.12,North,360,5.0,10.0,45,0.00,,,0.00,weatherlink.com 1.10,2013-02-14 23:45:00,
2013-02-14 18:00:00,53.8,34.0,30.13,North,11,5.0,8.0,47,0.00,,,0.00,weatherlink.com 1.10,2013-02-15 00:00:00,
2013-02-14 18:15:00,53.3,34.0,30.14,NNE,20,3.0,6.0,48,0.00,,,0.00,weatherlink.com 1.10,2013-02-15 00:15:00,
2013-02-14 18:30:00,52.8,33.0,30.15,North,355,1.0,7.0,48,0.00,,,0.00,weatherlink.com 1.10,2013-02-15 00:30:00,
2013-02-14 18:45:00,52.5,33.0,30.16,North,360,3.0,5.0,48,0.00,,,0.00,weatherlink.com 1.10,2013-02-15 00:45:00,
2013-02-14 19:00:00,52.0,33.0,30.17,North,360,1.0,4.0,49,0.00,,,0.00,weatherlink.com 1.10,2013-02-15 01:00:00,
2013-02-14 19:15:00,51.3,33.0,30.17,North,360,1.0,3.0,50,0.00,,,0.00,weatherlink.com 1.10,2013-02-15 01:15:00,
2013-02-14 19:30:00,50.4,33.0,30.18,North,355,2.0,3.0,52,0.00,,,0.00,weatherlink.com 1.10,2013-02-15 01:30:00,
2013-02-14 19:45:00,50.5,33.0,30.19,North,360,11.0,13.0,52,0.00,,,0.00,weatherlink.com 1.10,2013-02-15 01:45:00,
2013-02-14 20:00:00,50.6,33.0,30.20,NNE,16,10.0,13.0,51,0.00,,,0.00,weatherlink.com 1.10,2013-02-15 02:00:00,
2013-02-14 20:15:00,50.3,33.0,30.20,North,360,7.0,11.0,52,0.00,,,0.00,weatherlink.com 1.10,2013-02-15 02:15:00,
2013-02-14 20:31:00,50.2,33.0,30.20,North,360,8.0,11.0,52,0.00,,,0.00,weatherlink.com 1.10,2013-02-15 02:31:00,
2013-02-14 20:46:00,50.0,33.0,30.21,NNW,331,5.0,11.0,53,0.00,,,0.00,weatherlink.com 1.10,2013-02-15 02:46:00,
2013-02-14 21:01:00,49.9,33.0,30.21,North,10,3.0,11.0,53,0.00,,,0.00,weatherlink.com 1.10,2013-02-15 03:01:00,
2013-02-14 21:16:00,49.6,33.0,30.21,NNW,346,7.0,12.0,53,0.00,,,0.00,weatherlink.com 1.10,2013-02-15 03:16:00,
2013-02-14 21:31:00,49.7,33.0,30.22,North,355,6.0,14.0,52,0.00,,,0.00,weatherlink.com 1.10,2013-02-15 03:31:00,
2013-02-14 21:46:00,49.4,32.0,30.23,NW,320,9.0,15.0,52,0.00,,,0.00,weatherlink.com 1.10,2013-02-15 03:46:00,
2013-02-14 22:01:00,49.3,32.0,30.24,NNW,348,12.0,14.0,52,0.00,,,0.00,weatherlink.com 1.10,2013-02-15 04:01:00,
2013-02-14 22:16:00,48.8,32.0,30.25,North,360,8.0,17.0,53,0.00,,,0.00,weatherlink.com 1.10,2013-02-15 04:16:00,
2013-02-14 22:31:00,47.9,31.0,30.25,North,355,7.0,21.0,53,0.00,,,0.00,weatherlink.com 1.10,2013-02-15 04:31:00,
2013-02-14 22:46:00,46.9,33.0,30.26,North,360,5.0,16.0,58,0.00,,,0.00,weatherlink.com 1.10,2013-02-15 04:46:00,
2013-02-14 23:01:00,45.8,33.0,30.26,North,355,6.0,15.0,61,0.00,,,0.00,weatherlink.com 1.10,2013-02-15 05:01:00,
2013-02-14 23:16:00,46.3,32.0,30.26,North,350,3.0,11.0,58,0.00,,,0.00,weatherlink.com 1.10,2013-02-15 05:16:00,
2013-02-14 23:31:00,46.0,31.0,30.26,NNW,344,2.0,5.0,57,0.00,,,0.00,weatherlink.com 1.10,2013-02-15 05:31:00,
2013-02-14 23:46:00,45.9,31.0,30.26,NW,325,2.0,5.0,57,0.00,,,0.00,weatherlink.com 1.10,2013-02-15 05:46:00,